sensor_id;sensor_type;location;lat;lon;timestamp;temperature;humidity
20446;DHT22;10382;49.140;9.234;2022-07-23T00:01:38;27.10;99.90
20446;DHT22;10382;49.140;9.234;2022-07-23T00:04:06;27.00;99.90
20446;DHT22;10382;49.140;9.234;2022-07-23T00:06:33;26.90;99.90
20446;DHT22;10382;49.140;9.234;2022-07-23T00:09:00;26.90;99.90
20446;DHT22;10382;49.140;9.234;2022-07-23T00:11:27;26.90;99.90
20446;DHT22;10382;49.140;9.234;2022-07-23T00:13:54;26.90;99.90
20446;DHT22;10382;49.140;9.234;2022-07-23T00:16:24;26.80;99.90
20446;DHT22;10382;49.140;9.234;2022-07-23T00:18:51;26.90;99.90
20446;DHT22;10382;49.140;9.234;2022-07-23T00:21:18;26.80;99.90
20446;DHT22;10382;49.140;9.234;2022-07-23T00:23:45;26.80;99.90
20446;DHT22;10382;49.140;9.234;2022-07-23T00:26:11;26.90;99.90
20446;DHT22;10382;49.140;9.234;2022-07-23T00:28:38;26.90;99.90
20446;DHT22;10382;49.140;9.234;2022-07-23T00:31:05;26.80;99.90
20446;DHT22;10382;49.140;9.234;2022-07-23T00:33:33;26.90;99.90
20446;DHT22;10382;49.140;9.234;2022-07-23T00:36:00;26.90;99.90
20446;DHT22;10382;49.140;9.234;2022-07-23T00:38:27;26.90;99.90
20446;DHT22;10382;49.140;9.234;2022-07-23T00:40:54;26.90;99.90
20446;DHT22;10382;49.140;9.234;2022-07-23T00:43:21;26.90;99.90
20446;DHT22;10382;49.140;9.234;2022-07-23T00:45:49;27.00;99.90
20446;DHT22;10382;49.140;9.234;2022-07-23T00:48:16;27.00;99.90
20446;DHT22;10382;49.140;9.234;2022-07-23T00:50:44;27.10;99.90
20446;DHT22;10382;49.140;9.234;2022-07-23T00:53:11;27.20;99.90
20446;DHT22;10382;49.140;9.234;2022-07-23T00:55:39;27.30;99.90
20446;DHT22;10382;49.140;9.234;2022-07-23T00:58:06;27.30;99.90
20446;DHT22;10382;49.140;9.234;2022-07-23T01:00:33;27.30;99.90
20446;DHT22;10382;49.140;9.234;2022-07-23T01:03:00;27.30;99.90
20446;DHT22;10382;49.140;9.234;2022-07-23T01:05:27;27.30;99.90
20446;DHT22;10382;49.140;9.234;2022-07-23T01:07:55;27.20;99.90
20446;DHT22;10382;49.140;9.234;2022-07-23T01:10:23;27.10;99.90
20446;DHT22;10382;49.140;9.234;2022-07-23T01:13:00;27.00;99.90
20446;DHT22;10382;49.140;9.234;2022-07-23T01:15:27;27.10;99.90
20446;DHT22;10382;49.140;9.234;2022-07-23T01:17:54;27.00;99.90
20446;DHT22;10382;49.140;9.234;2022-07-23T01:20:22;26.90;99.90
20446;DHT22;10382;49.140;9.234;2022-07-23T01:22:51;26.80;99.90
20446;DHT22;10382;49.140;9.234;2022-07-23T01:25:19;26.80;99.90
20446;DHT22;10382;49.140;9.234;2022-07-23T01:27:46;26.80;99.90
20446;DHT22;10382;49.140;9.234;2022-07-23T01:30:13;26.80;99.90
20446;DHT22;10382;49.140;9.234;2022-07-23T01:32:40;26.80;99.90
20446;DHT22;10382;49.140;9.234;2022-07-23T01:35:08;26.70;99.90
20446;DHT22;10382;49.140;9.234;2022-07-23T01:37:35;26.70;99.90
20446;DHT22;10382;49.140;9.234;2022-07-23T01:40:05;26.80;99.90
20446;DHT22;10382;49.140;9.234;2022-07-23T01:42:32;26.90;99.90
20446;DHT22;10382;49.140;9.234;2022-07-23T01:44:59;26.90;99.90
20446;DHT22;10382;49.140;9.234;2022-07-23T01:47:26;27.00;99.90
20446;DHT22;10382;49.140;9.234;2022-07-23T01:49:53;27.00;99.90
20446;DHT22;10382;49.140;9.234;2022-07-23T01:52:20;26.90;99.90
20446;DHT22;10382;49.140;9.234;2022-07-23T01:54:47;26.90;99.90
20446;DHT22;10382;49.140;9.234;2022-07-23T01:57:15;26.90;99.90
20446;DHT22;10382;49.140;9.234;2022-07-23T01:59:42;26.90;99.90
20446;DHT22;10382;49.140;9.234;2022-07-23T02:02:09;26.80;99.90
20446;DHT22;10382;49.140;9.234;2022-07-23T02:04:36;26.80;99.90
20446;DHT22;10382;49.140;9.234;2022-07-23T02:07:03;26.80;99.90
20446;DHT22;10382;49.140;9.234;2022-07-23T02:09:30;26.80;99.90
20446;DHT22;10382;49.140;9.234;2022-07-23T02:11:57;26.80;99.90
20446;DHT22;10382;49.140;9.234;2022-07-23T02:14:26;26.70;99.90
20446;DHT22;10382;49.140;9.234;2022-07-23T02:16:53;26.60;99.90
20446;DHT22;10382;49.140;9.234;2022-07-23T02:19:20;26.60;99.90
20446;DHT22;10382;49.140;9.234;2022-07-23T02:21:47;26.50;99.90
20446;DHT22;10382;49.140;9.234;2022-07-23T02:24:14;26.50;99.90
20446;DHT22;10382;49.140;9.234;2022-07-23T02:26:41;26.40;99.90
20446;DHT22;10382;49.140;9.234;2022-07-23T02:29:08;26.30;99.90
20446;DHT22;10382;49.140;9.234;2022-07-23T02:31:36;26.30;99.90
20446;DHT22;10382;49.140;9.234;2022-07-23T02:34:03;26.20;99.90
20446;DHT22;10382;49.140;9.234;2022-07-23T02:36:30;26.10;99.90
20446;DHT22;10382;49.140;9.234;2022-07-23T02:38:57;26.00;99.90
20446;DHT22;10382;49.140;9.234;2022-07-23T02:41:24;25.90;99.90
20446;DHT22;10382;49.140;9.234;2022-07-23T02:43:51;25.90;99.90
20446;DHT22;10382;49.140;9.234;2022-07-23T02:46:18;25.80;99.90
20446;DHT22;10382;49.140;9.234;2022-07-23T02:48:47;25.80;99.90
20446;DHT22;10382;49.140;9.234;2022-07-23T02:51:14;25.80;99.90
20446;DHT22;10382;49.140;9.234;2022-07-23T02:53:41;25.80;99.90
20446;DHT22;10382;49.140;9.234;2022-07-23T02:56:08;25.80;99.90
20446;DHT22;10382;49.140;9.234;2022-07-23T02:58:35;25.80;99.90
20446;DHT22;10382;49.140;9.234;2022-07-23T03:01:02;25.80;99.90
20446;DHT22;10382;49.140;9.234;2022-07-23T03:03:29;25.80;99.90
20446;DHT22;10382;49.140;9.234;2022-07-23T03:05:57;25.70;99.90
20446;DHT22;10382;49.140;9.234;2022-07-23T03:08:24;25.60;99.90
20446;DHT22;10382;49.140;9.234;2022-07-23T03:10:51;25.50;99.90
20446;DHT22;10382;49.140;9.234;2022-07-23T03:13:19;25.50;99.90
20446;DHT22;10382;49.140;9.234;2022-07-23T03:15:46;25.50;99.90
20446;DHT22;10382;49.140;9.234;2022-07-23T03:18:13;25.50;99.90
20446;DHT22;10382;49.140;9.234;2022-07-23T03:20:40;25.50;99.90
20446;DHT22;10382;49.140;9.234;2022-07-23T03:23:08;25.50;99.90
20446;DHT22;10382;49.140;9.234;2022-07-23T03:25:35;25.60;99.90
20446;DHT22;10382;49.140;9.234;2022-07-23T03:28:02;25.50;99.90
20446;DHT22;10382;49.140;9.234;2022-07-23T03:30:29;25.50;99.90
20446;DHT22;10382;49.140;9.234;2022-07-23T03:32:55;25.30;99.90
20446;DHT22;10382;49.140;9.234;2022-07-23T03:35:23;25.30;99.90
20446;DHT22;10382;49.140;9.234;2022-07-23T03:37:49;25.30;99.90
20446;DHT22;10382;49.140;9.234;2022-07-23T03:40:18;25.30;99.90
20446;DHT22;10382;49.140;9.234;2022-07-23T03:42:45;25.30;99.90
20446;DHT22;10382;49.140;9.234;2022-07-23T03:45:12;25.30;99.90
20446;DHT22;10382;49.140;9.234;2022-07-23T03:47:39;25.40;99.90
20446;DHT22;10382;49.140;9.234;2022-07-23T03:50:07;25.40;99.90
20446;DHT22;10382;49.140;9.234;2022-07-23T03:52:34;25.40;99.90
20446;DHT22;10382;49.140;9.234;2022-07-23T03:55:01;25.40;99.90
20446;DHT22;10382;49.140;9.234;2022-07-23T03:57:29;25.20;99.90
20446;DHT22;10382;49.140;9.234;2022-07-23T03:59:56;25.10;99.90
20446;DHT22;10382;49.140;9.234;2022-07-23T04:02:23;25.00;99.90
20446;DHT22;10382;49.140;9.234;2022-07-23T04:04:50;24.80;99.90
20446;DHT22;10382;49.140;9.234;2022-07-23T04:07:17;24.80;99.90
20446;DHT22;10382;49.140;9.234;2022-07-23T04:09:44;24.70;99.90
20446;DHT22;10382;49.140;9.234;2022-07-23T04:12:11;24.80;99.90
20446;DHT22;10382;49.140;9.234;2022-07-23T04:14:40;24.70;99.90
20446;DHT22;10382;49.140;9.234;2022-07-23T04:17:06;24.70;99.90
20446;DHT22;10382;49.140;9.234;2022-07-23T04:19:33;24.70;99.90
20446;DHT22;10382;49.140;9.234;2022-07-23T04:22:02;24.70;99.90
20446;DHT22;10382;49.140;9.234;2022-07-23T04:24:28;24.80;99.90
20446;DHT22;10382;49.140;9.234;2022-07-23T04:26:55;24.90;99.90
20446;DHT22;10382;49.140;9.234;2022-07-23T04:29:23;24.90;99.90
20446;DHT22;10382;49.140;9.234;2022-07-23T04:31:51;24.70;99.90
20446;DHT22;10382;49.140;9.234;2022-07-23T04:34:18;24.70;99.90
20446;DHT22;10382;49.140;9.234;2022-07-23T04:36:45;24.70;99.90
20446;DHT22;10382;49.140;9.234;2022-07-23T04:39:12;24.70;99.90
20446;DHT22;10382;49.140;9.234;2022-07-23T04:41:39;24.60;99.90
20446;DHT22;10382;49.140;9.234;2022-07-23T04:44:06;24.70;99.90
20446;DHT22;10382;49.140;9.234;2022-07-23T04:46:33;24.90;99.90
20446;DHT22;10382;49.140;9.234;2022-07-23T04:49:01;24.90;99.90
20446;DHT22;10382;49.140;9.234;2022-07-23T04:51:28;24.90;99.90
20446;DHT22;10382;49.140;9.234;2022-07-23T04:53:56;24.80;99.90
20446;DHT22;10382;49.140;9.234;2022-07-23T04:56:23;24.80;99.90
20446;DHT22;10382;49.140;9.234;2022-07-23T04:58:49;24.70;99.90
20446;DHT22;10382;49.140;9.234;2022-07-23T05:01:16;24.70;99.90
20446;DHT22;10382;49.140;9.234;2022-07-23T05:03:43;24.60;99.90
20446;DHT22;10382;49.140;9.234;2022-07-23T05:06:12;24.40;99.90
20446;DHT22;10382;49.140;9.234;2022-07-23T05:08:38;24.40;99.90
20446;DHT22;10382;49.140;9.234;2022-07-23T05:11:05;24.30;99.90
20446;DHT22;10382;49.140;9.234;2022-07-23T05:13:32;24.40;99.90
20446;DHT22;10382;49.140;9.234;2022-07-23T05:15:59;24.30;99.90
20446;DHT22;10382;49.140;9.234;2022-07-23T05:18:26;24.40;99.90
20446;DHT22;10382;49.140;9.234;2022-07-23T05:20:53;24.40;99.90
20446;DHT22;10382;49.140;9.234;2022-07-23T05:23:21;24.30;99.90
20446;DHT22;10382;49.140;9.234;2022-07-23T05:25:48;24.30;99.90
20446;DHT22;10382;49.140;9.234;2022-07-23T05:28:15;24.30;99.90
20446;DHT22;10382;49.140;9.234;2022-07-23T05:30:42;24.30;99.90
20446;DHT22;10382;49.140;9.234;2022-07-23T05:33:09;24.30;99.90
20446;DHT22;10382;49.140;9.234;2022-07-23T05:35:36;24.30;99.90
20446;DHT22;10382;49.140;9.234;2022-07-23T05:38:03;24.40;99.90
20446;DHT22;10382;49.140;9.234;2022-07-23T05:40:31;24.40;99.90
20446;DHT22;10382;49.140;9.234;2022-07-23T05:42:58;24.40;99.90
20446;DHT22;10382;49.140;9.234;2022-07-23T05:45:25;24.40;99.90
20446;DHT22;10382;49.140;9.234;2022-07-23T05:47:52;24.40;99.90
20446;DHT22;10382;49.140;9.234;2022-07-23T05:50:19;24.40;99.90
20446;DHT22;10382;49.140;9.234;2022-07-23T05:52:46;24.40;99.90
20446;DHT22;10382;49.140;9.234;2022-07-23T05:55:13;24.30;99.90
20446;DHT22;10382;49.140;9.234;2022-07-23T05:57:42;24.20;99.90
20446;DHT22;10382;49.140;9.234;2022-07-23T06:00:10;24.10;99.90
20446;DHT22;10382;49.140;9.234;2022-07-23T06:02:37;24.00;99.90
20446;DHT22;10382;49.140;9.234;2022-07-23T06:05:05;23.80;99.90
20446;DHT22;10382;49.140;9.234;2022-07-23T06:07:33;23.70;99.90
20446;DHT22;10382;49.140;9.234;2022-07-23T06:10:00;23.60;99.90
20446;DHT22;10382;49.140;9.234;2022-07-23T06:12:27;23.60;99.90
20446;DHT22;10382;49.140;9.234;2022-07-23T06:14:55;23.70;99.90
20446;DHT22;10382;49.140;9.234;2022-07-23T06:17:22;23.70;99.90
20446;DHT22;10382;49.140;9.234;2022-07-23T06:19:49;23.80;99.90
20446;DHT22;10382;49.140;9.234;2022-07-23T06:22:16;23.90;99.90
20446;DHT22;10382;49.140;9.234;2022-07-23T06:24:43;24.00;99.90
20446;DHT22;10382;49.140;9.234;2022-07-23T06:27:10;24.00;99.90
20446;DHT22;10382;49.140;9.234;2022-07-23T06:29:37;24.10;99.90
20446;DHT22;10382;49.140;9.234;2022-07-23T06:32:07;24.20;99.90
20446;DHT22;10382;49.140;9.234;2022-07-23T06:34:34;24.30;99.90
20446;DHT22;10382;49.140;9.234;2022-07-23T06:37:01;24.40;99.90
20446;DHT22;10382;49.140;9.234;2022-07-23T06:39:28;24.50;99.90
20446;DHT22;10382;49.140;9.234;2022-07-23T06:41:55;24.70;99.90
20446;DHT22;10382;49.140;9.234;2022-07-23T06:44:22;24.80;99.90
20446;DHT22;10382;49.140;9.234;2022-07-23T06:46:49;25.00;99.90
20446;DHT22;10382;49.140;9.234;2022-07-23T06:49:17;25.10;99.90
20446;DHT22;10382;49.140;9.234;2022-07-23T06:51:44;24.90;99.90
20446;DHT22;10382;49.140;9.234;2022-07-23T06:54:11;24.80;99.90
20446;DHT22;10382;49.140;9.234;2022-07-23T06:56:38;24.80;99.90
20446;DHT22;10382;49.140;9.234;2022-07-23T06:59:05;24.70;99.90
20446;DHT22;10382;49.140;9.234;2022-07-23T07:01:32;24.60;99.90
20446;DHT22;10382;49.140;9.234;2022-07-23T07:03:58;24.50;99.90
20446;DHT22;10382;49.140;9.234;2022-07-23T07:06:27;24.30;99.90
20446;DHT22;10382;49.140;9.234;2022-07-23T07:08:54;24.10;99.90
20446;DHT22;10382;49.140;9.234;2022-07-23T07:11:21;23.90;99.90
20446;DHT22;10382;49.140;9.234;2022-07-23T07:13:49;23.70;99.90
20446;DHT22;10382;49.140;9.234;2022-07-23T07:16:16;23.50;99.90
20446;DHT22;10382;49.140;9.234;2022-07-23T07:18:43;23.40;99.90
20446;DHT22;10382;49.140;9.234;2022-07-23T07:21:10;23.30;99.90
20446;DHT22;10382;49.140;9.234;2022-07-23T07:23:38;23.20;99.90
20446;DHT22;10382;49.140;9.234;2022-07-23T07:26:05;23.00;99.90
20446;DHT22;10382;49.140;9.234;2022-07-23T07:28:32;22.60;99.90
20446;DHT22;10382;49.140;9.234;2022-07-23T07:30:59;22.40;99.90
20446;DHT22;10382;49.140;9.234;2022-07-23T07:33:26;22.30;99.90
20446;DHT22;10382;49.140;9.234;2022-07-23T07:35:53;22.10;99.90
20446;DHT22;10382;49.140;9.234;2022-07-23T07:38:20;22.00;99.90
20446;DHT22;10382;49.140;9.234;2022-07-23T07:40:48;22.00;99.90
20446;DHT22;10382;49.140;9.234;2022-07-23T07:43:15;22.10;99.90
20446;DHT22;10382;49.140;9.234;2022-07-23T07:45:42;22.10;99.90
20446;DHT22;10382;49.140;9.234;2022-07-23T07:48:09;22.20;99.90
20446;DHT22;10382;49.140;9.234;2022-07-23T07:50:36;22.50;99.90
20446;DHT22;10382;49.140;9.234;2022-07-23T07:53:03;22.80;99.90
20446;DHT22;10382;49.140;9.234;2022-07-23T07:55:30;23.20;99.90
20446;DHT22;10382;49.140;9.234;2022-07-23T07:57:58;23.60;99.90
20446;DHT22;10382;49.140;9.234;2022-07-23T08:00:25;24.00;99.90
20446;DHT22;10382;49.140;9.234;2022-07-23T08:02:53;24.40;99.90
20446;DHT22;10382;49.140;9.234;2022-07-23T08:05:22;24.60;99.90
20446;DHT22;10382;49.140;9.234;2022-07-23T08:07:49;24.90;99.90
20446;DHT22;10382;49.140;9.234;2022-07-23T08:10:16;25.10;99.90
20446;DHT22;10382;49.140;9.234;2022-07-23T08:12:45;25.30;99.90
20446;DHT22;10382;49.140;9.234;2022-07-23T08:15:15;25.30;99.90
20446;DHT22;10382;49.140;9.234;2022-07-23T08:17:43;25.40;99.90
20446;DHT22;10382;49.140;9.234;2022-07-23T08:20:11;25.30;99.90
20446;DHT22;10382;49.140;9.234;2022-07-23T08:22:45;25.20;99.90
20446;DHT22;10382;49.140;9.234;2022-07-23T08:25:13;25.00;99.90
20446;DHT22;10382;49.140;9.234;2022-07-23T08:27:40;24.90;99.90
20446;DHT22;10382;49.140;9.234;2022-07-23T08:30:08;24.90;99.90
20446;DHT22;10382;49.140;9.234;2022-07-23T08:32:50;24.90;99.90
20446;DHT22;10382;49.140;9.234;2022-07-23T08:35:18;24.90;99.90
20446;DHT22;10382;49.140;9.234;2022-07-23T08:37:47;24.80;99.90
20446;DHT22;10382;49.140;9.234;2022-07-23T08:40:14;24.80;99.90
20446;DHT22;10382;49.140;9.234;2022-07-23T08:42:41;24.90;99.90
20446;DHT22;10382;49.140;9.234;2022-07-23T08:45:09;25.00;99.90
20446;DHT22;10382;49.140;9.234;2022-07-23T08:47:37;25.20;99.90
20446;DHT22;10382;49.140;9.234;2022-07-23T08:50:07;25.30;99.90
20446;DHT22;10382;49.140;9.234;2022-07-23T08:52:34;25.30;99.90
20446;DHT22;10382;49.140;9.234;2022-07-23T08:55:03;25.40;99.90
20446;DHT22;10382;49.140;9.234;2022-07-23T08:57:30;25.40;99.90
20446;DHT22;10382;49.140;9.234;2022-07-23T08:59:57;25.60;99.90
20446;DHT22;10382;49.140;9.234;2022-07-23T09:02:24;25.70;99.90
20446;DHT22;10382;49.140;9.234;2022-07-23T09:04:51;26.00;99.90
20446;DHT22;10382;49.140;9.234;2022-07-23T09:07:19;26.10;99.90
20446;DHT22;10382;49.140;9.234;2022-07-23T09:09:46;26.40;99.90
20446;DHT22;10382;49.140;9.234;2022-07-23T09:12:13;26.60;99.90
20446;DHT22;10382;49.140;9.234;2022-07-23T09:14:41;26.50;99.90
20446;DHT22;10382;49.140;9.234;2022-07-23T09:17:10;26.40;99.90
20446;DHT22;10382;49.140;9.234;2022-07-23T09:19:37;26.40;99.90
20446;DHT22;10382;49.140;9.234;2022-07-23T09:22:19;26.40;99.90
20446;DHT22;10382;49.140;9.234;2022-07-23T09:25:07;26.30;99.90
20446;DHT22;10382;49.140;9.234;2022-07-23T09:27:50;26.20;99.90
20446;DHT22;10382;49.140;9.234;2022-07-23T09:30:19;26.00;99.90
20446;DHT22;10382;49.140;9.234;2022-07-23T09:33:05;25.80;99.90
20446;DHT22;10382;49.140;9.234;2022-07-23T09:35:46;25.30;99.90
20446;DHT22;10382;49.140;9.234;2022-07-23T09:38:15;25.50;99.90
20446;DHT22;10382;49.140;9.234;2022-07-23T09:40:43;25.70;99.90
20446;DHT22;10382;49.140;9.234;2022-07-23T09:43:10;25.80;99.90
20446;DHT22;10382;49.140;9.234;2022-07-23T09:45:37;26.10;99.90
20446;DHT22;10382;49.140;9.234;2022-07-23T09:48:12;26.30;99.90
20446;DHT22;10382;49.140;9.234;2022-07-23T09:50:40;26.60;99.90
20446;DHT22;10382;49.140;9.234;2022-07-23T09:53:08;26.90;99.90
20446;DHT22;10382;49.140;9.234;2022-07-23T09:55:37;27.40;99.90
20446;DHT22;10382;49.140;9.234;2022-07-23T09:58:05;27.90;99.90
20446;DHT22;10382;49.140;9.234;2022-07-23T10:00:34;28.50;99.90
20446;DHT22;10382;49.140;9.234;2022-07-23T10:03:01;28.90;99.90
20446;DHT22;10382;49.140;9.234;2022-07-23T10:05:30;29.00;99.90
20446;DHT22;10382;49.140;9.234;2022-07-23T10:07:58;29.20;99.90
20446;DHT22;10382;49.140;9.234;2022-07-23T10:10:26;29.60;99.90
20446;DHT22;10382;49.140;9.234;2022-07-23T10:12:56;29.90;99.90
20446;DHT22;10382;49.140;9.234;2022-07-23T10:15:37;30.00;99.90
20446;DHT22;10382;49.140;9.234;2022-07-23T10:18:06;30.00;99.90
20446;DHT22;10382;49.140;9.234;2022-07-23T10:20:33;29.90;99.90
20446;DHT22;10382;49.140;9.234;2022-07-23T10:23:06;30.00;99.90
20446;DHT22;10382;49.140;9.234;2022-07-23T10:25:40;30.10;99.90
20446;DHT22;10382;49.140;9.234;2022-07-23T10:28:21;30.10;99.90
20446;DHT22;10382;49.140;9.234;2022-07-23T10:31:00;29.70;99.90
20446;DHT22;10382;49.140;9.234;2022-07-23T10:33:38;29.80;99.90
20446;DHT22;10382;49.140;9.234;2022-07-23T10:36:16;30.10;99.90
20446;DHT22;10382;49.140;9.234;2022-07-23T10:38:52;30.30;99.90
20446;DHT22;10382;49.140;9.234;2022-07-23T10:41:31;30.40;99.90
20446;DHT22;10382;49.140;9.234;2022-07-23T10:44:11;30.40;99.90
20446;DHT22;10382;49.140;9.234;2022-07-23T10:46:53;30.20;99.90
20446;DHT22;10382;49.140;9.234;2022-07-23T10:49:26;29.80;99.90
20446;DHT22;10382;49.140;9.234;2022-07-23T10:52:16;29.60;99.90
20446;DHT22;10382;49.140;9.234;2022-07-23T10:54:45;29.80;99.90
20446;DHT22;10382;49.140;9.234;2022-07-23T10:57:13;30.10;99.90
20446;DHT22;10382;49.140;9.234;2022-07-23T11:02:47;30.20;99.90
20446;DHT22;10382;49.140;9.234;2022-07-23T11:05:18;30.60;99.90
20446;DHT22;10382;49.140;9.234;2022-07-23T11:08:17;30.80;99.90
20446;DHT22;10382;49.140;9.234;2022-07-23T11:10:50;31.20;99.90
20446;DHT22;10382;49.140;9.234;2022-07-23T11:13:41;31.20;99.90
20446;DHT22;10382;49.140;9.234;2022-07-23T11:19:10;30.90;99.90
20446;DHT22;10382;49.140;9.234;2022-07-23T11:21:44;31.10;99.90
20446;DHT22;10382;49.140;9.234;2022-07-23T11:24:12;31.00;99.90
20446;DHT22;10382;49.140;9.234;2022-07-23T11:26:45;31.20;99.90
20446;DHT22;10382;49.140;9.234;2022-07-23T11:29:43;31.40;99.90
20446;DHT22;10382;49.140;9.234;2022-07-23T11:32:29;31.40;99.90
20446;DHT22;10382;49.140;9.234;2022-07-23T11:35:00;31.50;99.90
20446;DHT22;10382;49.140;9.234;2022-07-23T11:37:33;31.80;99.90
20446;DHT22;10382;49.140;9.234;2022-07-23T11:40:03;32.30;99.90
20446;DHT22;10382;49.140;9.234;2022-07-23T11:42:32;32.70;99.90
20446;DHT22;10382;49.140;9.234;2022-07-23T11:44:59;32.50;99.90
20446;DHT22;10382;49.140;9.234;2022-07-23T11:47:27;32.40;99.90
20446;DHT22;10382;49.140;9.234;2022-07-23T11:49:55;32.20;99.90
20446;DHT22;10382;49.140;9.234;2022-07-23T11:52:24;32.10;99.90
20446;DHT22;10382;49.140;9.234;2022-07-23T11:54:53;31.90;99.90
20446;DHT22;10382;49.140;9.234;2022-07-23T11:57:24;31.80;99.90
20446;DHT22;10382;49.140;9.234;2022-07-23T11:59:53;31.80;99.90
20446;DHT22;10382;49.140;9.234;2022-07-23T12:02:21;32.00;99.90
20446;DHT22;10382;49.140;9.234;2022-07-23T12:04:51;32.30;99.90
20446;DHT22;10382;49.140;9.234;2022-07-23T12:07:31;32.30;99.90
20446;DHT22;10382;49.140;9.234;2022-07-23T12:09:59;32.60;99.90
20446;DHT22;10382;49.140;9.234;2022-07-23T12:12:27;32.70;97.40
20446;DHT22;10382;49.140;9.234;2022-07-23T12:14:55;32.80;98.00
20446;DHT22;10382;49.140;9.234;2022-07-23T12:17:28;33.20;97.00
20446;DHT22;10382;49.140;9.234;2022-07-23T12:19:56;33.70;95.10
20446;DHT22;10382;49.140;9.234;2022-07-23T12:22:23;33.90;94.50
20446;DHT22;10382;49.140;9.234;2022-07-23T12:24:56;34.00;94.70
20446;DHT22;10382;49.140;9.234;2022-07-23T12:27:25;34.20;93.70
20446;DHT22;10382;49.140;9.234;2022-07-23T12:29:53;34.20;92.70
20446;DHT22;10382;49.140;9.234;2022-07-23T12:32:21;34.10;91.20
20446;DHT22;10382;49.140;9.234;2022-07-23T12:34:50;34.00;92.30
20446;DHT22;10382;49.140;9.234;2022-07-23T12:37:27;34.00;91.30
20446;DHT22;10382;49.140;9.234;2022-07-23T12:39:56;33.70;91.50
20446;DHT22;10382;49.140;9.234;2022-07-23T12:42:23;33.60;92.00
20446;DHT22;10382;49.140;9.234;2022-07-23T12:45:07;33.70;92.50
20446;DHT22;10382;49.140;9.234;2022-07-23T12:47:51;34.10;91.10
20446;DHT22;10382;49.140;9.234;2022-07-23T12:50:36;34.20;86.20
20446;DHT22;10382;49.140;9.234;2022-07-23T12:53:09;34.00;87.20
20446;DHT22;10382;49.140;9.234;2022-07-23T12:55:38;33.60;89.80
20446;DHT22;10382;49.140;9.234;2022-07-23T12:58:11;33.60;88.40
20446;DHT22;10382;49.140;9.234;2022-07-23T13:01:05;33.60;89.00
20446;DHT22;10382;49.140;9.234;2022-07-23T13:03:37;33.80;86.40
20446;DHT22;10382;49.140;9.234;2022-07-23T13:06:07;33.70;86.10
20446;DHT22;10382;49.140;9.234;2022-07-23T13:08:36;33.50;86.00
20446;DHT22;10382;49.140;9.234;2022-07-23T13:11:06;33.40;85.10
20446;DHT22;10382;49.140;9.234;2022-07-23T13:13:34;33.40;84.90
20446;DHT22;10382;49.140;9.234;2022-07-23T13:16:02;33.50;84.00
20446;DHT22;10382;49.140;9.234;2022-07-23T13:18:29;33.50;83.30
20446;DHT22;10382;49.140;9.234;2022-07-23T13:20:57;33.20;85.50
20446;DHT22;10382;49.140;9.234;2022-07-23T13:23:24;33.00;85.40
20446;DHT22;10382;49.140;9.234;2022-07-23T13:25:51;32.90;86.80
20446;DHT22;10382;49.140;9.234;2022-07-23T13:28:20;32.90;88.30
20446;DHT22;10382;49.140;9.234;2022-07-23T13:30:49;33.20;87.10
20446;DHT22;10382;49.140;9.234;2022-07-23T13:33:17;33.50;88.00
20446;DHT22;10382;49.140;9.234;2022-07-23T13:35:45;33.70;84.80
20446;DHT22;10382;49.140;9.234;2022-07-23T13:38:12;34.00;82.20
20446;DHT22;10382;49.140;9.234;2022-07-23T13:40:41;33.70;80.90
20446;DHT22;10382;49.140;9.234;2022-07-23T13:43:09;33.20;82.70
20446;DHT22;10382;49.140;9.234;2022-07-23T13:45:38;33.10;82.70
20446;DHT22;10382;49.140;9.234;2022-07-23T13:48:06;33.00;83.50
20446;DHT22;10382;49.140;9.234;2022-07-23T13:50:33;33.40;84.90
20446;DHT22;10382;49.140;9.234;2022-07-23T13:53:02;33.50;83.90
20446;DHT22;10382;49.140;9.234;2022-07-23T13:55:29;33.50;84.30
20446;DHT22;10382;49.140;9.234;2022-07-23T13:57:56;33.70;83.50
20446;DHT22;10382;49.140;9.234;2022-07-23T14:00:24;33.70;83.80
20446;DHT22;10382;49.140;9.234;2022-07-23T14:02:52;33.80;81.70
20446;DHT22;10382;49.140;9.234;2022-07-23T14:05:19;34.00;81.80
20446;DHT22;10382;49.140;9.234;2022-07-23T14:07:46;34.20;81.10
20446;DHT22;10382;49.140;9.234;2022-07-23T14:10:16;34.10;80.10
20446;DHT22;10382;49.140;9.234;2022-07-23T14:12:43;33.80;80.30
20446;DHT22;10382;49.140;9.234;2022-07-23T14:15:10;33.70;80.90
20446;DHT22;10382;49.140;9.234;2022-07-23T14:17:38;33.70;80.10
20446;DHT22;10382;49.140;9.234;2022-07-23T14:20:08;34.00;78.90
20446;DHT22;10382;49.140;9.234;2022-07-23T14:22:35;34.10;79.40
20446;DHT22;10382;49.140;9.234;2022-07-23T14:25:03;34.20;77.70
20446;DHT22;10382;49.140;9.234;2022-07-23T14:27:30;34.20;77.50
20446;DHT22;10382;49.140;9.234;2022-07-23T14:29:57;34.20;78.70
20446;DHT22;10382;49.140;9.234;2022-07-23T14:32:25;34.30;78.30
20446;DHT22;10382;49.140;9.234;2022-07-23T14:34:52;34.30;76.50
20446;DHT22;10382;49.140;9.234;2022-07-23T14:37:20;34.20;76.50
20446;DHT22;10382;49.140;9.234;2022-07-23T14:39:48;34.00;77.30
20446;DHT22;10382;49.140;9.234;2022-07-23T14:42:15;34.00;77.30
20446;DHT22;10382;49.140;9.234;2022-07-23T14:44:42;33.70;78.60
20446;DHT22;10382;49.140;9.234;2022-07-23T14:47:09;33.40;77.90
20446;DHT22;10382;49.140;9.234;2022-07-23T14:49:36;33.10;78.40
20446;DHT22;10382;49.140;9.234;2022-07-23T14:52:05;32.90;79.90
20446;DHT22;10382;49.140;9.234;2022-07-23T14:54:34;32.90;81.80
20446;DHT22;10382;49.140;9.234;2022-07-23T14:57:02;33.10;81.00
20446;DHT22;10382;49.140;9.234;2022-07-23T14:59:30;33.30;80.50
20446;DHT22;10382;49.140;9.234;2022-07-23T15:01:57;33.40;79.60
20446;DHT22;10382;49.140;9.234;2022-07-23T15:04:24;33.60;79.70
20446;DHT22;10382;49.140;9.234;2022-07-23T15:06:51;33.60;78.20
20446;DHT22;10382;49.140;9.234;2022-07-23T15:09:19;33.60;78.10
20446;DHT22;10382;49.140;9.234;2022-07-23T15:11:47;33.70;78.80
20446;DHT22;10382;49.140;9.234;2022-07-23T15:14:14;33.70;79.10
20446;DHT22;10382;49.140;9.234;2022-07-23T15:16:41;33.90;78.40
20446;DHT22;10382;49.140;9.234;2022-07-23T15:19:08;33.90;77.20
20446;DHT22;10382;49.140;9.234;2022-07-23T15:21:35;33.80;77.50
20446;DHT22;10382;49.140;9.234;2022-07-23T15:24:02;33.70;79.30
20446;DHT22;10382;49.140;9.234;2022-07-23T15:26:30;33.80;78.00
20446;DHT22;10382;49.140;9.234;2022-07-23T15:28:58;34.00;79.10
20446;DHT22;10382;49.140;9.234;2022-07-23T15:31:27;34.30;77.10
20446;DHT22;10382;49.140;9.234;2022-07-23T15:33:54;34.70;75.30
20446;DHT22;10382;49.140;9.234;2022-07-23T15:36:22;35.00;75.20
20446;DHT22;10382;49.140;9.234;2022-07-23T15:38:49;35.20;74.80
20446;DHT22;10382;49.140;9.234;2022-07-23T15:41:16;35.30;74.10
20446;DHT22;10382;49.140;9.234;2022-07-23T15:43:43;35.40;72.90
20446;DHT22;10382;49.140;9.234;2022-07-23T15:46:11;35.60;72.80